createdAt,value
2018-10-03T00:00:37.941Z,100989.69
2018-10-03T00:01:41.399Z,100989.69
2018-10-03T00:02:44.800Z,100983.95
2018-10-03T00:03:48.632Z,100990.81
2018-10-03T00:04:52.039Z,100988.88
2018-10-03T00:05:55.451Z,100987.82
2018-10-03T00:06:58.885Z,100998.51
2018-10-03T00:08:02.330Z,100994.45
2018-10-03T00:09:07.893Z,100999.95
2018-10-03T00:10:11.310Z,100999.07
2018-10-03T00:11:14.704Z,100999.95
2018-10-03T00:12:18.226Z,101004.33
2018-10-03T00:13:21.658Z,100997.70
2018-10-03T00:14:25.092Z,100998.58
2018-10-03T00:15:28.495Z,101005.95
2018-10-03T00:16:31.948Z,101013.95
2018-10-03T00:17:35.412Z,101016.70
2018-10-03T00:18:38.817Z,101019.45
2018-10-03T00:19:42.309Z,101023.83
2018-10-03T00:20:45.788Z,101020.27
2018-10-03T00:21:49.207Z,101015.08
2018-10-03T00:22:52.912Z,101020.27
2018-10-03T00:23:56.336Z,101018.64
2018-10-03T00:24:59.827Z,101020.83
2018-10-03T00:26:03.243Z,101023.58
2018-10-03T00:27:06.893Z,101021.70
2018-10-03T00:28:10.297Z,101018.67
2018-10-03T00:29:13.710Z,101019.52
2018-10-03T00:30:17.126Z,101024.73
2018-10-03T00:31:20.566Z,101026.11
2018-10-03T00:32:24.016Z,101019.55
2018-10-03T00:33:27.584Z,101027.48
2018-10-03T00:34:31.022Z,101024.48
2018-10-03T00:35:34.434Z,101021.73
2018-10-03T00:36:37.868Z,101023.68
2018-10-03T00:37:41.328Z,101025.86
2018-10-03T00:38:44.788Z,101024.24
2018-10-03T00:39:48.396Z,101030.30
2018-10-03T00:40:51.819Z,101028.94
2018-10-03T00:41:55.242Z,101027.55
2018-10-03T00:42:58.654Z,101032.74
2018-10-03T00:44:02.105Z,101029.74
2018-10-03T00:45:06.042Z,101035.24
2018-10-03T00:46:09.698Z,101033.87
2018-10-03T00:47:13.113Z,101035.24
2018-10-03T00:48:16.551Z,101030.87
2018-10-03T00:49:20.000Z,101030.30
2018-10-03T00:50:23.411Z,101028.94
2018-10-03T00:51:26.843Z,101030.06
2018-10-03T00:52:30.430Z,101027.06
2018-10-03T00:53:33.833Z,101038.55
2018-10-03T00:54:37.312Z,101035.55
2018-10-03T00:55:40.771Z,101040.25
2018-10-03T00:56:44.234Z,101038.06
2018-10-03T00:57:47.685Z,101040.81
2018-10-03T00:58:51.114Z,101042.19
2018-10-03T00:59:54.587Z,101037.81
2018-10-03T01:00:58.045Z,101036.19
2018-10-03T01:02:01.455Z,101041.94
2018-10-03T01:03:04.928Z,101038.94
2018-10-03T01:04:08.341Z,101044.44
2018-10-03T01:05:11.755Z,101055.44
2018-10-03T01:06:15.213Z,101049.94
2018-10-03T01:07:18.611Z,101051.81
2018-10-03T01:08:22.021Z,101050.44
2018-10-03T01:09:25.485Z,101052.62
2018-10-03T01:10:28.905Z,101052.62
2018-10-03T01:11:32.405Z,101055.38
2018-10-03T01:12:35.876Z,101057.87
2018-10-03T01:13:39.323Z,101052.12
2018-10-03T01:14:42.739Z,101052.94
2018-10-03T01:15:46.169Z,101049.12
2018-10-03T01:16:49.595Z,101046.94
2018-10-03T01:17:53.018Z,101048.31
2018-10-03T01:18:56.409Z,101041.19
2018-10-03T01:19:59.842Z,101048.06
2018-10-03T01:21:03.297Z,101041.75
2018-10-03T01:22:06.736Z,101053.31
2018-10-03T01:23:10.176Z,101054.69
2018-10-03T01:24:13.578Z,101050.87
2018-10-03T01:25:16.999Z,101056.94
2018-10-03T01:26:20.433Z,101049.25
2018-10-03T01:27:23.854Z,101052.81
2018-10-03T01:28:27.227Z,101050.06
2018-10-03T01:29:30.675Z,101055.56
2018-10-03T01:30:34.087Z,101052.56
2018-10-03T01:31:37.534Z,101062.44
2018-10-03T01:32:41.000Z,101055.81
2018-10-03T01:33:44.432Z,101050.87
2018-10-03T01:34:47.861Z,101054.44
2018-10-03T01:35:51.263Z,101057.44
2018-10-03T01:36:54.703Z,101061.25
2018-10-03T01:37:58.998Z,101053.00
2018-10-03T01:39:02.501Z,101053.25
2018-10-03T01:40:05.983Z,101051.31
2018-10-03T01:41:09.425Z,101050.50
2018-10-03T01:42:12.831Z,101051.56
2018-10-03T01:43:16.257Z,101049.38
2018-10-03T01:44:19.720Z,101046.06
2018-10-03T01:45:23.278Z,101054.31
2018-10-03T01:46:26.694Z,101058.44
2018-10-03T01:47:30.095Z,101049.94
2018-10-03T01:48:33.810Z,101049.63
2018-10-03T01:49:37.233Z,101054.31
2018-10-03T01:50:40.634Z,101052.94
2018-10-03T01:51:44.073Z,101054.31
2018-10-03T01:52:47.589Z,101055.13
2018-10-03T01:53:51.031Z,101051.25
2018-10-03T01:54:54.488Z,101059.81
2018-10-03T01:55:57.878Z,101059.25
2018-10-03T01:57:01.262Z,101060.37
2018-10-03T01:58:04.741Z,101065.31
2018-10-03T01:59:08.150Z,101068.06
2018-10-03T02:00:11.723Z,101058.19
2018-10-03T02:01:15.130Z,101063.69
2018-10-03T02:02:18.539Z,101063.69
2018-10-03T02:03:21.965Z,101062.06
2018-10-03T02:04:25.402Z,101061.50
2018-10-03T02:05:28.844Z,101067.81
2018-10-03T02:06:32.288Z,101068.06
2018-10-03T02:07:35.764Z,101064.81
2018-10-03T02:08:39.264Z,101065.62
2018-10-03T02:09:42.696Z,101070.56
2018-10-03T02:10:46.161Z,101074.44
2018-10-03T02:11:49.613Z,101077.44
2018-10-03T02:12:53.081Z,101080.19
2018-10-03T02:13:56.494Z,101073.63
2018-10-03T02:14:59.907Z,101071.44
2018-10-03T02:16:03.356Z,101074.75
2018-10-03T02:17:07.038Z,101074.75
2018-10-03T02:18:10.431Z,101075.31
2018-10-03T02:19:13.905Z,101071.19
2018-10-03T02:20:17.318Z,101074.75
2018-10-03T02:21:20.721Z,101075.31
2018-10-03T02:22:24.150Z,101075.31
2018-10-03T02:23:27.581Z,101076.69
2018-10-03T02:24:31.006Z,101078.06
2018-10-03T02:25:34.492Z,101081.63
2018-10-03T02:26:37.926Z,101084.94
2018-10-03T02:27:41.361Z,101074.75
2018-10-03T02:28:44.801Z,101077.50
2018-10-03T02:29:48.319Z,101079.44
2018-10-03T02:30:51.722Z,101083.56
2018-10-03T02:31:55.162Z,101080.00
2018-10-03T02:32:58.598Z,101084.13
2018-10-03T02:34:02.034Z,101081.94
2018-10-03T02:35:05.528Z,101083.31
2018-10-03T02:36:09.033Z,101089.06
2018-10-03T02:37:12.493Z,101088.25
2018-10-03T02:38:15.931Z,101091.56
2018-10-03T02:39:19.360Z,101091.81
2018-10-03T02:40:22.808Z,101086.06
2018-10-03T02:41:26.280Z,101083.06
2018-10-03T02:42:29.672Z,101084.69
2018-10-03T02:43:33.128Z,101085.56
2018-10-03T02:44:36.604Z,101089.94
2018-10-03T02:45:40.064Z,101092.69
2018-10-03T02:46:43.471Z,101094.63
2018-10-03T02:47:46.889Z,101091.31
2018-10-03T02:48:50.311Z,101096.81
2018-10-03T02:49:53.773Z,101093.25
2018-10-03T02:50:57.209Z,101096.56
2018-10-03T02:52:00.784Z,101092.69
2018-10-03T02:53:04.182Z,101098.19
2018-10-03T02:54:07.661Z,101101.50
2018-10-03T02:55:11.118Z,101105.88
2018-10-03T02:56:14.686Z,101111.37
2018-10-03T02:57:18.144Z,101112.75
2018-10-03T02:58:21.575Z,101111.94
2018-10-03T02:59:25.058Z,101111.94
2018-10-03T03:00:28.496Z,101118.25
2018-10-03T03:01:32.025Z,101112.75
2018-10-03T03:02:35.535Z,101116.88
2018-10-03T03:03:38.961Z,101111.94
2018-10-03T03:04:42.339Z,101113.56
2018-10-03T03:05:45.766Z,101117.44
2018-10-03T03:06:49.217Z,101121.56
2018-10-03T03:07:52.630Z,101110.56
2018-10-03T03:08:56.140Z,101111.69
2018-10-03T03:09:59.487Z,101114.69
2018-10-03T03:11:02.896Z,101119.94
2018-10-03T03:12:06.318Z,101118.81
2018-10-03T03:13:09.754Z,101126.25
2018-10-03T03:14:13.165Z,101122.69
2018-10-03T03:15:16.606Z,101129.81
2018-10-03T03:16:20.091Z,101124.87
2018-10-03T03:17:23.524Z,101128.19
2018-10-03T03:18:26.954Z,101124.31
2018-10-03T03:19:30.389Z,101128.44
2018-10-03T03:20:33.786Z,101123.75
2018-10-03T03:21:37.274Z,101131.44
2018-10-03T03:22:41.092Z,101128.69
2018-10-03T03:23:44.529Z,101129.25
2018-10-03T03:24:47.971Z,101131.19
2018-10-03T03:25:51.410Z,101129.81
2018-10-03T03:26:54.886Z,101129.25
2018-10-03T03:27:58.327Z,101135.88
2018-10-03T03:29:01.770Z,101139.44
2018-10-03T03:30:05.453Z,101141.38
2018-10-03T03:31:08.962Z,101143.88
2018-10-03T03:32:12.394Z,101143.88
2018-10-03T03:33:15.917Z,101150.19
2018-10-03T03:34:19.425Z,101151.81
2018-10-03T03:35:22.929Z,101150.19
2018-10-03T03:36:26.369Z,101149.37
2018-10-03T03:37:29.797Z,101144.44
2018-10-03T03:38:33.341Z,101142.50
2018-10-03T03:39:36.777Z,101141.13
2018-10-03T03:40:40.244Z,101141.69
2018-10-03T03:41:43.930Z,101143.59
2018-10-03T03:42:47.380Z,101145.81
2018-10-03T03:43:50.942Z,101140.84
2018-10-03T03:44:54.334Z,101141.97
2018-10-03T03:45:57.774Z,101144.47
2018-10-03T03:47:01.201Z,101142.27
2018-10-03T03:48:04.650Z,101139.77
2018-10-03T03:49:08.053Z,101145.59
2018-10-03T03:50:11.448Z,101142.02
2018-10-03T03:51:14.901Z,101149.45
2018-10-03T03:52:18.292Z,101147.52
2018-10-03T03:53:21.757Z,101148.08
2018-10-03T03:54:25.189Z,101156.64
2018-10-03T03:55:28.596Z,101148.39
2018-10-03T03:56:32.046Z,101154.45
2018-10-03T03:57:35.451Z,101153.08
2018-10-03T03:58:38.852Z,101150.33
2018-10-03T03:59:42.246Z,101149.52
2018-10-03T04:00:45.688Z,101149.52
2018-10-03T04:01:49.101Z,101152.02
2018-10-03T04:02:52.502Z,101155.58
2018-10-03T04:03:55.934Z,101150.08
2018-10-03T04:04:59.392Z,101154.20
2018-10-03T04:06:02.819Z,101158.64
2018-10-03T04:07:06.210Z,101157.27
2018-10-03T04:08:09.896Z,101164.64
2018-10-03T04:09:13.324Z,101168.27
2018-10-03T04:10:16.750Z,101171.57
2018-10-03T04:11:20.186Z,101172.95
2018-10-03T04:12:23.605Z,101171.32
2018-10-03T04:13:27.094Z,101166.07
2018-10-03T04:14:30.554Z,101165.26
2018-10-03T04:15:34.017Z,101161.70
2018-10-03T04:16:37.468Z,101163.08
2018-10-03T04:17:40.902Z,101166.38
2018-10-03T04:18:44.330Z,101165.01
2018-10-03T04:19:47.863Z,101162.26
2018-10-03T04:20:51.282Z,101160.88
2018-10-03T04:21:54.712Z,101161.45
2018-10-03T04:22:58.124Z,101164.75
2018-10-03T04:24:01.564Z,101165.56
2018-10-03T04:25:05.105Z,101169.69
2018-10-03T04:26:08.568Z,101164.20
2018-10-03T04:27:12.155Z,101162.82
2018-10-03T04:28:15.590Z,101167.50
2018-10-03T04:29:19.006Z,101168.31
2018-10-03T04:30:22.445Z,101167.50
2018-10-03T04:31:25.886Z,101166.44
2018-10-03T04:32:29.342Z,101168.63
2018-10-03T04:33:32.790Z,101167.81
2018-10-03T04:34:36.199Z,101167.25
2018-10-03T04:35:39.712Z,101170.00
2018-10-03T04:36:43.093Z,101173.00
2018-10-03T04:37:46.567Z,101167.50
2018-10-03T04:38:50.017Z,101173.00
2018-10-03T04:39:53.438Z,101170.25
2018-10-03T04:40:56.906Z,101169.44
2018-10-03T04:42:00.366Z,101170.00
2018-10-03T04:43:03.770Z,101181.00
2018-10-03T04:44:07.196Z,101176.06
2018-10-03T04:45:10.661Z,101182.37
2018-10-03T04:46:14.125Z,101183.50
2018-10-03T04:47:17.597Z,101193.13
2018-10-03T04:48:21.014Z,101191.75
2018-10-03T04:49:24.480Z,101184.62
2018-10-03T04:50:27.952Z,101192.02
2018-10-03T04:51:31.391Z,101196.70
2018-10-03T04:52:34.845Z,101201.64
2018-10-03T04:53:38.268Z,101199.45
2018-10-03T04:54:41.734Z,101206.33
2018-10-03T04:55:45.145Z,101207.45
2018-10-03T04:56:48.592Z,101206.08
2018-10-03T04:57:52.051Z,101206.89
2018-10-03T04:58:55.470Z,101208.83
2018-10-03T04:59:58.941Z,101206.64
2018-10-03T05:01:02.353Z,101208.58
2018-10-03T05:02:05.956Z,101208.83
2018-10-03T05:03:09.360Z,101208.58
2018-10-03T05:04:12.799Z,101214.07
2018-10-03T05:05:16.241Z,101214.63
2018-10-03T05:06:19.672Z,101214.63
2018-10-03T05:07:23.125Z,101216.56
2018-10-03T05:08:26.545Z,101217.38
2018-10-03T05:09:29.994Z,101219.31
2018-10-03T05:10:33.429Z,101222.63
2018-10-03T05:11:36.838Z,101222.63
2018-10-03T05:12:40.519Z,101225.94
2018-10-03T05:13:43.968Z,101231.13
2018-10-03T05:14:47.372Z,101229.50
2018-10-03T05:15:51.367Z,101240.75
2018-10-03T05:16:54.764Z,101236.63
2018-10-03T05:17:58.227Z,101233.63
2018-10-03T05:19:01.700Z,101240.19
2018-10-03T05:20:05.456Z,101237.19
2018-10-03T05:21:08.887Z,101234.44
2018-10-03T05:22:12.292Z,101235.25
2018-10-03T05:23:15.711Z,101229.75
2018-10-03T05:24:19.138Z,101233.87
2018-10-03T05:25:22.527Z,101233.06
2018-10-03T05:26:25.967Z,101240.19
2018-10-03T05:27:29.422Z,101244.06
2018-10-03T05:28:32.866Z,101245.44
2018-10-03T05:29:36.286Z,101246.81
2018-10-03T05:30:39.671Z,101255.31
2018-10-03T05:31:43.109Z,101259.69
2018-10-03T05:32:47.080Z,101256.69
2018-10-03T05:33:50.612Z,101264.11
2018-10-03T05:34:54.043Z,101263.30
2018-10-03T05:35:57.512Z,101262.48
2018-10-03T05:37:00.966Z,101264.42
2018-10-03T05:38:04.461Z,101261.92
2018-10-03T05:39:10.817Z,101263.86
2018-10-03T05:40:14.230Z,101269.36
2018-10-03T05:41:17.765Z,101272.67
2018-10-03T05:42:21.206Z,101272.41
2018-10-03T05:43:24.619Z,101268.30
2018-10-03T05:44:28.033Z,101273.53
2018-10-03T05:45:31.493Z,101278.48
2018-10-03T05:46:34.880Z,101276.84
2018-10-03T05:47:38.452Z,101279.29
2018-10-03T05:48:41.916Z,101287.53
2018-10-03T05:49:45.374Z,101283.97
2018-10-03T05:50:49.097Z,101283.16
2018-10-03T05:51:52.530Z,101283.16
2018-10-03T05:52:55.955Z,101284.78
2018-10-03T05:53:59.374Z,101284.53
2018-10-03T05:55:02.780Z,101285.09
2018-10-03T05:56:06.189Z,101286.47
2018-10-03T05:57:09.624Z,101299.66
2018-10-03T05:58:13.065Z,101293.84
2018-10-03T05:59:16.536Z,101304.03
2018-10-03T06:00:19.996Z,101302.09
2018-10-03T06:01:23.391Z,101302.91
2018-10-03T06:02:26.795Z,101303.16
2018-10-03T06:03:30.223Z,101296.29
2018-10-03T06:04:33.666Z,101302.86
2018-10-03T06:05:37.110Z,101303.67
2018-10-03T06:06:40.519Z,101293.23
2018-10-03T06:07:43.955Z,101298.73
2018-10-03T06:08:47.347Z,101300.41
2018-10-03T06:09:50.778Z,101303.98
2018-10-03T06:10:54.211Z,101310.59
2018-10-03T06:11:57.739Z,101307.29
2018-10-03T06:13:01.159Z,101305.66
2018-10-03T06:14:04.650Z,101305.97
2018-10-03T06:15:08.351Z,101310.91
2018-10-03T06:16:11.862Z,101308.71
2018-10-03T06:17:15.277Z,101315.28
2018-10-03T06:18:18.780Z,101312.73
2018-10-03T06:19:22.223Z,101319.05
2018-10-03T06:20:25.692Z,101318.22
2018-10-03T06:21:29.093Z,101325.65
2018-10-03T06:22:32.563Z,101324.85
2018-10-03T06:23:36.033Z,101334.78
2018-10-03T06:24:39.500Z,101338.14
2018-10-03T06:25:42.970Z,101340.12
2018-10-03T06:26:46.398Z,101342.92
2018-10-03T06:27:49.919Z,101345.69
2018-10-03T06:28:53.378Z,101351.23
2018-10-03T06:29:56.846Z,101345.52
2018-10-03T06:31:00.284Z,101357.63
2018-10-03T06:32:03.776Z,101353.00
2018-10-03T06:33:07.232Z,101349.73
2018-10-03T06:34:10.664Z,101350.86
2018-10-03T06:35:14.691Z,101352.23
2018-10-03T06:36:18.165Z,101346.22
2018-10-03T06:37:21.644Z,101345.11
2018-10-03T06:38:25.044Z,101342.10
2018-10-03T06:39:28.570Z,101345.92
2018-10-03T06:40:32.225Z,101354.72
2018-10-03T06:41:35.650Z,101352.53
2018-10-03T06:42:39.517Z,101353.34
2018-10-03T06:43:43.171Z,101354.72
2018-10-03T06:44:46.793Z,101354.17
2018-10-03T06:45:50.760Z,101354.17
2018-10-03T06:46:54.212Z,101352.80
2018-10-03T06:47:57.658Z,101359.10
2018-10-03T06:49:01.163Z,101357.73
2018-10-03T06:50:04.655Z,101360.73
2018-10-03T06:51:08.478Z,101363.48
2018-10-03T06:52:11.922Z,101363.48
2018-10-03T06:53:15.477Z,101361.85
2018-10-03T06:54:18.962Z,101363.78
2018-10-03T06:55:22.437Z,101373.15
2018-10-03T06:56:26.101Z,101381.10
2018-10-03T06:57:29.783Z,101383.03
2018-10-03T06:58:33.206Z,101382.22
2018-10-03T06:59:36.726Z,101386.90
2018-10-03T07:00:40.189Z,101392.66
2018-10-03T07:01:43.726Z,101389.34
2018-10-03T07:02:47.224Z,101394.31
2018-10-03T07:03:50.711Z,101398.44
2018-10-03T07:04:54.296Z,101402.56
2018-10-03T07:05:57.764Z,101403.37
2018-10-03T07:07:01.696Z,101402.81
2018-10-03T07:08:05.220Z,101402.00
2018-10-03T07:09:09.280Z,101410.72
2018-10-03T07:10:12.699Z,101406.08
2018-10-03T07:11:16.224Z,101411.27
2018-10-03T07:12:19.679Z,101412.34
2018-10-03T07:13:23.106Z,101415.66
2018-10-03T07:14:26.552Z,101418.66
2018-10-03T07:15:30.140Z,101413.98
2018-10-03T07:16:33.576Z,101416.73
2018-10-03T07:17:37.030Z,101413.98
2018-10-03T07:18:40.464Z,101420.84
2018-10-03T07:19:44.003Z,101423.86
2018-10-03T07:20:47.767Z,101426.64
2018-10-03T07:21:51.248Z,101432.95
2018-10-03T07:22:55.093Z,101428.58
2018-10-03T07:23:58.543Z,101432.70
2018-10-03T07:25:02.041Z,101436.87
2018-10-03T07:26:05.556Z,101436.61
2018-10-03T07:27:08.942Z,101443.22
2018-10-03T07:28:12.376Z,101444.61
2018-10-03T07:29:15.976Z,101444.87
2018-10-03T07:30:19.868Z,101453.67
2018-10-03T07:31:23.353Z,101458.91
2018-10-03T07:32:26.817Z,101459.47
2018-10-03T07:33:30.467Z,101463.33
2018-10-03T07:34:34.562Z,101464.45
2018-10-03T07:35:38.089Z,101458.69
2018-10-03T07:36:41.592Z,101461.70
2018-10-03T07:37:45.044Z,101469.12
2018-10-03T07:38:48.503Z,101469.94
2018-10-03T07:39:51.949Z,101469.68
2018-10-03T07:40:56.190Z,101478.19
2018-10-03T07:41:59.841Z,101482.30
2018-10-03T07:43:03.241Z,101476.81
2018-10-03T07:44:07.153Z,101479.26
2018-10-03T07:45:10.767Z,101480.89
2018-10-03T07:46:14.264Z,101478.95
2018-10-03T07:47:17.761Z,101485.27
2018-10-03T07:48:21.215Z,101488.01
2018-10-03T07:49:24.760Z,101488.83
2018-10-03T07:50:28.188Z,101489.64
2018-10-03T07:51:31.648Z,101485.78
2018-10-03T07:52:35.110Z,101485.73
2018-10-03T07:53:38.663Z,101479.12
2018-10-03T07:54:42.142Z,101485.95
2018-10-03T07:55:46.627Z,101491.97
2018-10-03T07:56:50.081Z,101488.92
2018-10-03T07:57:53.566Z,101493.30
2018-10-03T07:58:56.979Z,101496.04
2018-10-03T08:00:00.465Z,101499.05
2018-10-03T08:01:03.890Z,101500.94
2018-10-03T08:02:07.376Z,101494.87
2018-10-03T08:03:12.592Z,101500.08
2018-10-03T08:04:16.040Z,101501.45
2018-10-03T08:05:19.527Z,101504.72
2018-10-03T08:06:22.961Z,101504.16
2018-10-03T08:07:26.518Z,101506.61
2018-10-03T08:08:30.013Z,101506.86
2018-10-03T08:09:33.513Z,101506.86
2018-10-03T08:10:37.795Z,101506.56
2018-10-03T08:11:41.318Z,101504.63
2018-10-03T08:12:44.735Z,101510.12
2018-10-03T08:13:48.256Z,101507.38
2018-10-03T08:14:51.714Z,101510.42
2018-10-03T08:15:55.376Z,101508.75
2018-10-03T08:16:58.852Z,101513.42
2018-10-03T08:18:02.337Z,101509.57
2018-10-03T08:19:05.813Z,101513.70
2018-10-03T08:20:09.503Z,101520.05
2018-10-03T08:21:12.984Z,101513.98
2018-10-03T08:22:16.527Z,101517.30
2018-10-03T08:23:20.086Z,101519.75
2018-10-03T08:24:23.535Z,101525.55
2018-10-03T08:25:26.974Z,101526.92
2018-10-03T08:26:30.453Z,101529.92
2018-10-03T08:27:33.929Z,101528.30
2018-10-03T08:28:37.402Z,101531.56
2018-10-03T08:29:40.819Z,101531.86
2018-10-03T08:30:44.244Z,101535.42
2018-10-03T08:31:47.752Z,101534.31
2018-10-03T08:32:51.393Z,101535.16
2018-10-03T08:33:54.640Z,101527.44
2018-10-03T08:34:58.085Z,101528.30
2018-10-03T08:36:01.538Z,101536.80
2018-10-03T08:37:05.078Z,101531.86
2018-10-03T08:38:08.548Z,101539.55
2018-10-03T08:39:13.959Z,101542.55
2018-10-03T08:40:17.476Z,101548.05
2018-10-03T08:41:21.074Z,101546.68
2018-10-03T08:42:24.750Z,101549.69
2018-10-03T08:43:28.542Z,101542.55
2018-10-03T08:44:32.052Z,101549.69
2018-10-03T08:45:35.588Z,101553.25
2018-10-03T08:46:38.956Z,101558.19
2018-10-03T08:47:42.426Z,101555.19
2018-10-03T08:48:45.850Z,101558.19
2018-10-03T08:49:49.435Z,101563.14
2018-10-03T08:50:52.859Z,101562.58
2018-10-03T08:51:56.306Z,101562.58
2018-10-03T08:52:59.816Z,101561.20
2018-10-03T08:54:03.354Z,101564.21
2018-10-03T08:55:07.023Z,101564.47
2018-10-03T08:56:10.473Z,101560.61
2018-10-03T08:57:13.945Z,101564.73
2018-10-03T08:58:17.586Z,101564.17
2018-10-03T08:59:21.058Z,101561.38
2018-10-03T09:00:24.555Z,101558.89
2018-10-03T09:01:27.981Z,101568.51
2018-10-03T09:02:31.401Z,101569.03
2018-10-03T09:03:34.853Z,101569.31
2018-10-03T09:04:38.255Z,101570.39
2018-10-03T09:05:41.685Z,101577.27
2018-10-03T09:06:45.255Z,101576.15
2018-10-03T09:07:48.676Z,101578.09
2018-10-03T09:08:52.168Z,101580.27
2018-10-03T09:09:56.339Z,101578.09
2018-10-03T09:10:59.821Z,101571.20
2018-10-03T09:12:03.263Z,101575.08
2018-10-03T09:13:06.684Z,101569.58
2018-10-03T09:14:10.166Z,101579.20
2018-10-03T09:15:13.661Z,101583.33
2018-10-03T09:16:17.111Z,101591.31
2018-10-03T09:17:20.558Z,101587.19
2018-10-03T09:18:24.575Z,101584.16
2018-10-03T09:19:28.045Z,101581.69
2018-10-03T09:20:31.474Z,101578.09
2018-10-03T09:21:34.904Z,101585.22
2018-10-03T09:22:38.325Z,101578.09
2018-10-03T09:23:41.767Z,101583.03
2018-10-03T09:24:45.240Z,101584.14
2018-10-03T09:25:48.696Z,101586.33
2018-10-03T09:26:52.276Z,101583.03
2018-10-03T09:27:55.756Z,101582.47
2018-10-03T09:28:59.329Z,101587.70
2018-10-03T09:30:02.798Z,101593.77
2018-10-03T09:31:06.261Z,101590.20
2018-10-03T09:32:09.737Z,101585.81
2018-10-03T09:33:13.162Z,101592.13
2018-10-03T09:34:16.652Z,101595.16
2018-10-03T09:35:20.556Z,101589.70
2018-10-03T09:36:23.974Z,101597.13
2018-10-03T09:37:27.410Z,101598.24
2018-10-03T09:38:30.885Z,101602.41
2018-10-03T09:39:34.353Z,101602.45
2018-10-03T09:40:37.818Z,101598.06
2018-10-03T09:41:41.603Z,101603.05
2018-10-03T09:42:45.070Z,101605.53
2018-10-03T09:43:48.582Z,101609.41
2018-10-03T09:44:52.049Z,101602.80
2018-10-03T09:45:55.527Z,101605.58
2018-10-03T09:46:59.001Z,101606.14
2018-10-03T09:48:02.519Z,101609.45
2018-10-03T09:49:06.197Z,101611.67
2018-10-03T09:50:10.278Z,101618.29
2018-10-03T09:51:13.714Z,101615.80
2018-10-03T09:52:17.231Z,101617.17
2018-10-03T09:53:20.695Z,101610.30
2018-10-03T09:54:24.398Z,101617.66
2018-10-03T09:55:27.834Z,101615.72
2018-10-03T09:56:33.003Z,101617.91
2018-10-03T09:57:36.500Z,101621.17
2018-10-03T09:58:39.943Z,101628.05
2018-10-03T09:59:43.409Z,101621.70
2018-10-03T10:00:52.296Z,101624.70
2018-10-03T10:01:56.834Z,101626.34
2018-10-03T10:03:00.462Z,101622.73
2018-10-03T10:04:05.112Z,101622.99
2018-10-03T10:05:08.694Z,101624.11
2018-10-03T10:06:12.593Z,101628.49
2018-10-03T10:07:16.682Z,101621.36
2018-10-03T10:08:20.402Z,101629.61
2018-10-03T10:09:24.729Z,101622.17
2018-10-03T10:10:28.376Z,101625.22
2018-10-03T10:11:32.214Z,101623.03
2018-10-03T10:12:35.555Z,101627.45
2018-10-03T10:13:39.426Z,101634.89
2018-10-03T10:14:43.567Z,101629.95
2018-10-03T10:15:47.649Z,101635.70
2018-10-03T10:16:53.396Z,101626.94
2018-10-03T10:17:59.288Z,101635.45
2018-10-03T10:19:04.859Z,101632.14
2018-10-03T10:20:08.357Z,101638.45
2018-10-03T10:21:14.233Z,101639.83
2018-10-03T10:22:19.068Z,101641.20
2018-10-03T10:23:25.512Z,101639.53
2018-10-03T10:24:29.315Z,101640.09
2018-10-03T10:25:32.830Z,101651.91
2018-10-03T10:26:36.458Z,101650.83
2018-10-03T10:27:39.918Z,101649.97
2018-10-03T10:28:44.278Z,101652.98
2018-10-03T10:29:51.278Z,101657.11
2018-10-03T10:31:03.563Z,101647.78
2018-10-03T10:32:13.804Z,101646.97
2018-10-03T10:33:19.054Z,101649.72
2018-10-03T10:34:29.207Z,101649.97
2018-10-03T10:35:32.993Z,101649.16
2018-10-03T10:36:36.443Z,101651.34
2018-10-03T10:37:40.691Z,101653.28
2018-10-03T10:38:44.204Z,101648.59
2018-10-03T10:39:49.485Z,101647.48
2018-10-03T10:40:53.285Z,101651.87
2018-10-03T10:41:57.161Z,101655.99
2018-10-03T10:43:01.794Z,101654.32
2018-10-03T10:44:05.545Z,101654.88
2018-10-03T10:45:08.999Z,101662.57
2018-10-03T10:46:12.588Z,101649.94
2018-10-03T10:47:16.542Z,101656.55
2018-10-03T10:48:20.145Z,101657.92
2018-10-03T10:49:23.835Z,101654.92
2018-10-03T10:50:28.394Z,101653.84
2018-10-03T10:51:32.163Z,101653.58
2018-10-03T10:52:35.845Z,101655.81
2018-10-03T10:53:40.213Z,101649.49
2018-10-03T10:54:44.155Z,101653.91
2018-10-03T10:55:47.758Z,101653.39
2018-10-03T10:56:51.207Z,101655.03
2018-10-03T10:57:54.684Z,101660.83
2018-10-03T10:58:58.358Z,101664.69
2018-10-03T11:00:01.968Z,101658.38
2018-10-03T11:01:05.434Z,101657.30
2018-10-03T11:02:09.154Z,101658.67
2018-10-03T11:03:12.583Z,101662.28
2018-10-03T11:04:16.368Z,101661.20
2018-10-03T11:05:20.281Z,101659.01
2018-10-03T11:06:23.920Z,101660.13
2018-10-03T11:07:27.310Z,101662.05
2018-10-03T11:08:32.120Z,101657.11
2018-10-03T11:09:35.793Z,101664.25
2018-10-03T11:10:39.753Z,101670.56
2018-10-03T11:11:43.320Z,101665.36
2018-10-03T11:12:46.976Z,101669.19
2018-10-03T11:13:50.423Z,101664.25
2018-10-03T11:14:53.852Z,101666.44
2018-10-03T11:15:57.320Z,101670.00
2018-10-03T11:17:01.043Z,101668.63
2018-10-03T11:18:04.922Z,101671.94
2018-10-03T11:19:08.975Z,101672.49
2018-10-03T11:20:12.521Z,101671.38
2018-10-03T11:21:16.313Z,101673.86
2018-10-03T11:22:20.058Z,101677.98
2018-10-03T11:23:23.627Z,101682.11
2018-10-03T11:24:27.384Z,101675.23
2018-10-03T11:25:30.949Z,101681.30
2018-10-03T11:26:34.868Z,101685.68
2018-10-03T11:27:38.329Z,101682.97
2018-10-03T11:28:42.239Z,101678.29
2018-10-03T11:29:45.773Z,101678.84
2018-10-03T11:30:49.582Z,101674.72
2018-10-03T11:31:52.987Z,101679.89
2018-10-03T11:32:56.446Z,101677.14
2018-10-03T11:33:59.893Z,101679.26
2018-10-03T11:35:03.917Z,101676.47
2018-10-03T11:36:07.428Z,101674.28
2018-10-03T11:37:10.882Z,101673.42
2018-10-03T11:38:14.346Z,101683.86
2018-10-03T11:39:17.861Z,101676.69
2018-10-03T11:40:21.466Z,101676.69
2018-10-03T11:41:24.918Z,101679.70
2018-10-03T11:42:28.344Z,101680.22
2018-10-03T11:43:31.965Z,101683.53
2018-10-03T11:44:35.576Z,101684.61
2018-10-03T11:45:39.042Z,101681.04
2018-10-03T11:46:42.475Z,101680.48
2018-10-03T11:47:45.947Z,101677.47
2018-10-03T11:48:49.419Z,101685.98
2018-10-03T11:49:52.909Z,101679.92
2018-10-03T11:50:56.409Z,101677.99
2018-10-03T11:51:59.899Z,101676.06
2018-10-03T11:53:03.316Z,101674.65
2018-10-03T11:54:06.917Z,101674.95
2018-10-03T11:55:10.720Z,101674.39
2018-10-03T11:56:14.284Z,101677.14
2018-10-03T11:57:17.724Z,101661.75
2018-10-03T11:58:21.448Z,101664.50
2018-10-03T11:59:24.973Z,101662.02
2018-10-03T12:00:29.652Z,101663.13
2018-10-03T12:01:33.221Z,101665.88
2018-10-03T12:02:36.699Z,101672.20
2018-10-03T12:03:40.105Z,101668.07
2018-10-03T12:04:43.718Z,101663.95
2018-10-03T12:05:47.157Z,101674.95